sensor_id;sensor_type;location;lat;lon;timestamp;temperature;humidity
30648;DHT22;17683;53.360;9.736;2023-04-03T00:01:15;1.20;99.90
30648;DHT22;17683;53.360;9.736;2023-04-03T00:03:41;1.20;99.90
30648;DHT22;17683;53.360;9.736;2023-04-03T00:06:07;1.20;99.90
30648;DHT22;17683;53.360;9.736;2023-04-03T00:08:35;1.20;99.90
30648;DHT22;17683;53.360;9.736;2023-04-03T00:11:01;1.20;99.90
30648;DHT22;17683;53.360;9.736;2023-04-03T00:13:27;1.20;99.90
30648;DHT22;17683;53.360;9.736;2023-04-03T00:15:53;1.20;99.90
30648;DHT22;17683;53.360;9.736;2023-04-03T00:18:20;1.20;99.90
30648;DHT22;17683;53.360;9.736;2023-04-03T00:20:47;1.20;99.90
30648;DHT22;17683;53.360;9.736;2023-04-03T00:23:12;1.10;99.90
30648;DHT22;17683;53.360;9.736;2023-04-03T00:25:38;1.10;99.90
30648;DHT22;17683;53.360;9.736;2023-04-03T00:28:04;1.00;99.90
30648;DHT22;17683;53.360;9.736;2023-04-03T00:30:31;0.90;99.90
30648;DHT22;17683;53.360;9.736;2023-04-03T00:32:57;0.90;99.90
30648;DHT22;17683;53.360;9.736;2023-04-03T00:35:24;0.90;99.90
30648;DHT22;17683;53.360;9.736;2023-04-03T00:37:54;0.90;99.90
30648;DHT22;17683;53.360;9.736;2023-04-03T00:40:22;0.80;99.90
30648;DHT22;17683;53.360;9.736;2023-04-03T00:42:51;0.80;99.90
30648;DHT22;17683;53.360;9.736;2023-04-03T00:45:36;0.80;99.90
30648;DHT22;17683;53.360;9.736;2023-04-03T00:48:04;0.80;99.90
30648;DHT22;17683;53.360;9.736;2023-04-03T00:50:36;0.70;99.90
30648;DHT22;17683;53.360;9.736;2023-04-03T00:53:04;0.70;99.90
30648;DHT22;17683;53.360;9.736;2023-04-03T00:55:31;0.70;99.90
30648;DHT22;17683;53.360;9.736;2023-04-03T00:57:57;0.70;99.90
30648;DHT22;17683;53.360;9.736;2023-04-03T01:00:24;0.60;99.90
30648;DHT22;17683;53.360;9.736;2023-04-03T01:02:50;0.60;99.90
30648;DHT22;17683;53.360;9.736;2023-04-03T01:05:17;0.60;99.90
30648;DHT22;17683;53.360;9.736;2023-04-03T01:07:45;0.50;99.90
30648;DHT22;17683;53.360;9.736;2023-04-03T01:10:13;0.50;99.90
30648;DHT22;17683;53.360;9.736;2023-04-03T01:12:42;0.50;99.90
30648;DHT22;17683;53.360;9.736;2023-04-03T01:15:12;0.50;99.90
30648;DHT22;17683;53.360;9.736;2023-04-03T01:17:42;0.50;99.90
30648;DHT22;17683;53.360;9.736;2023-04-03T01:25:42;0.40;99.90
30648;DHT22;17683;53.360;9.736;2023-04-03T01:28:11;0.40;99.90
30648;DHT22;17683;53.360;9.736;2023-04-03T01:33:27;0.30;99.90
30648;DHT22;17683;53.360;9.736;2023-04-03T01:35:53;0.30;99.90
30648;DHT22;17683;53.360;9.736;2023-04-03T01:38:19;0.30;99.90
30648;DHT22;17683;53.360;9.736;2023-04-03T01:40:46;0.20;99.90
30648;DHT22;17683;53.360;9.736;2023-04-03T01:43:11;0.30;99.90
30648;DHT22;17683;53.360;9.736;2023-04-03T01:45:37;0.30;99.90
30648;DHT22;17683;53.360;9.736;2023-04-03T01:48:03;0.30;99.90
30648;DHT22;17683;53.360;9.736;2023-04-03T01:50:29;0.20;99.90
30648;DHT22;17683;53.360;9.736;2023-04-03T01:52:55;0.20;99.90
30648;DHT22;17683;53.360;9.736;2023-04-03T01:55:21;0.20;99.90
30648;DHT22;17683;53.360;9.736;2023-04-03T01:57:47;0.20;99.90
30648;DHT22;17683;53.360;9.736;2023-04-03T02:00:13;0.20;99.90
30648;DHT22;17683;53.360;9.736;2023-04-03T02:02:39;0.20;99.90
30648;DHT22;17683;53.360;9.736;2023-04-03T02:05:05;0.10;99.90
30648;DHT22;17683;53.360;9.736;2023-04-03T02:07:31;0.10;99.90
30648;DHT22;17683;53.360;9.736;2023-04-03T02:09:57;0.00;99.90
30648;DHT22;17683;53.360;9.736;2023-04-03T02:12:23;0.00;99.90
30648;DHT22;17683;53.360;9.736;2023-04-03T02:14:48;0.00;99.90
30648;DHT22;17683;53.360;9.736;2023-04-03T02:17:14;0.00;99.90
30648;DHT22;17683;53.360;9.736;2023-04-03T02:19:40;0.00;99.90
30648;DHT22;17683;53.360;9.736;2023-04-03T02:22:06;0.00;99.90
30648;DHT22;17683;53.360;9.736;2023-04-03T02:24:32;0.00;99.90
30648;DHT22;17683;53.360;9.736;2023-04-03T02:26:58;0.00;99.90
30648;DHT22;17683;53.360;9.736;2023-04-03T02:29:24;0.00;99.90
30648;DHT22;17683;53.360;9.736;2023-04-03T02:31:50;0.00;99.90
30648;DHT22;17683;53.360;9.736;2023-04-03T02:34:16;-0.10;99.90
30648;DHT22;17683;53.360;9.736;2023-04-03T02:36:42;-0.10;99.90
30648;DHT22;17683;53.360;9.736;2023-04-03T02:39:08;-0.10;99.90
30648;DHT22;17683;53.360;9.736;2023-04-03T02:41:34;-0.10;99.90
30648;DHT22;17683;53.360;9.736;2023-04-03T02:44:04;-0.10;99.90
30648;DHT22;17683;53.360;9.736;2023-04-03T02:46:30;-0.20;99.90
30648;DHT22;17683;53.360;9.736;2023-04-03T02:48:56;-0.30;99.90
30648;DHT22;17683;53.360;9.736;2023-04-03T02:51:22;-0.30;99.90
30648;DHT22;17683;53.360;9.736;2023-04-03T02:53:49;-0.20;99.90
30648;DHT22;17683;53.360;9.736;2023-04-03T02:56:16;-0.30;99.90
30648;DHT22;17683;53.360;9.736;2023-04-03T02:58:42;-0.30;99.90
30648;DHT22;17683;53.360;9.736;2023-04-03T03:01:08;-0.30;99.90
30648;DHT22;17683;53.360;9.736;2023-04-03T03:03:37;-0.30;99.90
30648;DHT22;17683;53.360;9.736;2023-04-03T03:06:04;-0.30;99.90
30648;DHT22;17683;53.360;9.736;2023-04-03T03:08:31;-0.30;99.90
30648;DHT22;17683;53.360;9.736;2023-04-03T03:10:57;-0.30;99.90
30648;DHT22;17683;53.360;9.736;2023-04-03T03:13:22;-0.40;99.90
30648;DHT22;17683;53.360;9.736;2023-04-03T03:15:48;-0.40;99.90
30648;DHT22;17683;53.360;9.736;2023-04-03T03:18:14;-0.50;99.90
30648;DHT22;17683;53.360;9.736;2023-04-03T03:20:40;-0.50;99.90
30648;DHT22;17683;53.360;9.736;2023-04-03T03:23:06;-0.50;99.90
30648;DHT22;17683;53.360;9.736;2023-04-03T03:25:31;-0.50;99.90
30648;DHT22;17683;53.360;9.736;2023-04-03T03:27:57;-0.60;99.90
30648;DHT22;17683;53.360;9.736;2023-04-03T03:30:23;-0.60;99.90
30648;DHT22;17683;53.360;9.736;2023-04-03T03:32:48;-0.60;99.90
30648;DHT22;17683;53.360;9.736;2023-04-03T03:35:14;-0.60;99.90
30648;DHT22;17683;53.360;9.736;2023-04-03T03:37:40;-0.60;99.90
30648;DHT22;17683;53.360;9.736;2023-04-03T03:40:07;-0.60;99.90
30648;DHT22;17683;53.360;9.736;2023-04-03T03:42:33;-0.60;99.90
30648;DHT22;17683;53.360;9.736;2023-04-03T03:44:58;-0.60;99.90
30648;DHT22;17683;53.360;9.736;2023-04-03T03:47:24;-0.60;99.90
30648;DHT22;17683;53.360;9.736;2023-04-03T03:49:50;-0.60;99.90
30648;DHT22;17683;53.360;9.736;2023-04-03T03:52:19;-0.60;99.90
30648;DHT22;17683;53.360;9.736;2023-04-03T03:54:45;-0.60;99.90
30648;DHT22;17683;53.360;9.736;2023-04-03T03:57:11;-0.60;99.90
30648;DHT22;17683;53.360;9.736;2023-04-03T03:59:36;-0.60;99.90
30648;DHT22;17683;53.360;9.736;2023-04-03T04:02:02;-0.60;99.90
30648;DHT22;17683;53.360;9.736;2023-04-03T04:04:28;-0.70;99.90
30648;DHT22;17683;53.360;9.736;2023-04-03T04:06:53;-0.70;99.90
30648;DHT22;17683;53.360;9.736;2023-04-03T04:09:19;-0.70;99.90
30648;DHT22;17683;53.360;9.736;2023-04-03T04:11:45;-0.80;99.90
30648;DHT22;17683;53.360;9.736;2023-04-03T04:14:11;-0.80;99.90
30648;DHT22;17683;53.360;9.736;2023-04-03T04:16:38;-0.80;99.90
30648;DHT22;17683;53.360;9.736;2023-04-03T04:19:04;-0.80;99.90
30648;DHT22;17683;53.360;9.736;2023-04-03T04:21:30;-0.80;99.90
30648;DHT22;17683;53.360;9.736;2023-04-03T04:23:56;-0.90;99.90
30648;DHT22;17683;53.360;9.736;2023-04-03T04:26:22;-0.90;99.90
30648;DHT22;17683;53.360;9.736;2023-04-03T04:28:50;-0.90;99.90
30648;DHT22;17683;53.360;9.736;2023-04-03T04:31:16;-1.00;99.90
30648;DHT22;17683;53.360;9.736;2023-04-03T04:33:42;-1.00;99.90
30648;DHT22;17683;53.360;9.736;2023-04-03T04:36:07;-1.00;99.90
30648;DHT22;17683;53.360;9.736;2023-04-03T04:38:33;-1.00;99.90
30648;DHT22;17683;53.360;9.736;2023-04-03T04:41:02;-1.00;99.90
30648;DHT22;17683;53.360;9.736;2023-04-03T04:43:28;-1.00;99.90
30648;DHT22;17683;53.360;9.736;2023-04-03T04:46:05;-0.90;99.90
30648;DHT22;17683;53.360;9.736;2023-04-03T04:48:31;-0.90;99.90
30648;DHT22;17683;53.360;9.736;2023-04-03T04:50:57;-1.00;99.90
30648;DHT22;17683;53.360;9.736;2023-04-03T04:53:23;-0.90;99.90
30648;DHT22;17683;53.360;9.736;2023-04-03T04:55:49;-0.90;99.90
30648;DHT22;17683;53.360;9.736;2023-04-03T04:58:15;-0.90;99.90
30648;DHT22;17683;53.360;9.736;2023-04-03T05:00:40;-0.90;99.90
30648;DHT22;17683;53.360;9.736;2023-04-03T05:03:06;-1.00;99.90
30648;DHT22;17683;53.360;9.736;2023-04-03T05:05:32;-0.90;99.90
30648;DHT22;17683;53.360;9.736;2023-04-03T05:07:57;-1.00;99.90
30648;DHT22;17683;53.360;9.736;2023-04-03T05:10:23;-1.00;99.90
30648;DHT22;17683;53.360;9.736;2023-04-03T05:12:49;-1.00;99.90
30648;DHT22;17683;53.360;9.736;2023-04-03T05:15:15;-1.00;99.90
30648;DHT22;17683;53.360;9.736;2023-04-03T05:17:40;-1.00;99.90
30648;DHT22;17683;53.360;9.736;2023-04-03T05:20:07;-1.00;99.90
30648;DHT22;17683;53.360;9.736;2023-04-03T05:22:33;-1.00;99.90
30648;DHT22;17683;53.360;9.736;2023-04-03T05:24:58;-1.00;99.90
30648;DHT22;17683;53.360;9.736;2023-04-03T05:27:24;-1.00;99.90
30648;DHT22;17683;53.360;9.736;2023-04-03T05:29:52;-1.00;99.90
30648;DHT22;17683;53.360;9.736;2023-04-03T05:32:18;-1.00;99.90
30648;DHT22;17683;53.360;9.736;2023-04-03T05:34:44;-1.00;99.90
30648;DHT22;17683;53.360;9.736;2023-04-03T05:37:10;-1.00;99.90
30648;DHT22;17683;53.360;9.736;2023-04-03T05:39:39;-1.00;99.90
30648;DHT22;17683;53.360;9.736;2023-04-03T05:42:06;-1.00;99.90
30648;DHT22;17683;53.360;9.736;2023-04-03T05:44:32;-1.00;99.90
30648;DHT22;17683;53.360;9.736;2023-04-03T05:46:59;-0.90;99.90
30648;DHT22;17683;53.360;9.736;2023-04-03T05:49:25;-0.90;99.90
30648;DHT22;17683;53.360;9.736;2023-04-03T05:51:51;-0.80;99.90
30648;DHT22;17683;53.360;9.736;2023-04-03T05:54:30;-0.80;99.90
30648;DHT22;17683;53.360;9.736;2023-04-03T05:56:56;-0.80;99.90
30648;DHT22;17683;53.360;9.736;2023-04-03T05:59:22;-0.70;99.90
30648;DHT22;17683;53.360;9.736;2023-04-03T06:01:48;-0.70;99.90
30648;DHT22;17683;53.360;9.736;2023-04-03T06:04:14;-0.70;99.90
30648;DHT22;17683;53.360;9.736;2023-04-03T06:06:51;-0.60;99.90
30648;DHT22;17683;53.360;9.736;2023-04-03T06:09:19;-0.50;99.90
30648;DHT22;17683;53.360;9.736;2023-04-03T06:11:45;-0.40;99.90
30648;DHT22;17683;53.360;9.736;2023-04-03T06:14:11;-0.30;99.90
30648;DHT22;17683;53.360;9.736;2023-04-03T06:16:37;-0.20;99.90
30648;DHT22;17683;53.360;9.736;2023-04-03T06:19:04;-0.10;99.90
30648;DHT22;17683;53.360;9.736;2023-04-03T06:21:31;0.10;99.90
30648;DHT22;17683;53.360;9.736;2023-04-03T06:23:57;0.20;99.90
30648;DHT22;17683;53.360;9.736;2023-04-03T06:26:23;0.50;99.90
30648;DHT22;17683;53.360;9.736;2023-04-03T06:28:49;0.70;99.90
30648;DHT22;17683;53.360;9.736;2023-04-03T06:31:15;0.80;99.90
30648;DHT22;17683;53.360;9.736;2023-04-03T06:33:41;1.00;99.90
30648;DHT22;17683;53.360;9.736;2023-04-03T06:36:07;1.10;99.90
30648;DHT22;17683;53.360;9.736;2023-04-03T06:38:33;1.10;99.90
30648;DHT22;17683;53.360;9.736;2023-04-03T06:41:02;1.20;99.90
30648;DHT22;17683;53.360;9.736;2023-04-03T06:43:28;1.20;99.90
30648;DHT22;17683;53.360;9.736;2023-04-03T06:45:53;1.30;99.90
30648;DHT22;17683;53.360;9.736;2023-04-03T06:48:19;1.40;99.90
30648;DHT22;17683;53.360;9.736;2023-04-03T06:50:45;1.60;99.90
30648;DHT22;17683;53.360;9.736;2023-04-03T06:53:11;1.60;99.90
30648;DHT22;17683;53.360;9.736;2023-04-03T06:55:37;1.80;99.90
30648;DHT22;17683;53.360;9.736;2023-04-03T06:58:04;1.90;99.90
30648;DHT22;17683;53.360;9.736;2023-04-03T07:00:32;2.00;99.90
30648;DHT22;17683;53.360;9.736;2023-04-03T07:02:59;2.10;99.90
30648;DHT22;17683;53.360;9.736;2023-04-03T07:05:25;2.20;99.90
30648;DHT22;17683;53.360;9.736;2023-04-03T07:07:52;2.30;99.90
30648;DHT22;17683;53.360;9.736;2023-04-03T07:10:18;2.50;99.90
30648;DHT22;17683;53.360;9.736;2023-04-03T07:12:43;2.70;99.90
30648;DHT22;17683;53.360;9.736;2023-04-03T07:15:10;2.80;99.90
30648;DHT22;17683;53.360;9.736;2023-04-03T07:17:38;2.90;99.90
30648;DHT22;17683;53.360;9.736;2023-04-03T07:20:04;3.20;99.90
30648;DHT22;17683;53.360;9.736;2023-04-03T07:22:30;3.40;99.90
30648;DHT22;17683;53.360;9.736;2023-04-03T07:24:56;3.60;99.90
30648;DHT22;17683;53.360;9.736;2023-04-03T07:27:22;3.80;99.90
30648;DHT22;17683;53.360;9.736;2023-04-03T07:29:48;4.00;99.90
30648;DHT22;17683;53.360;9.736;2023-04-03T07:32:14;4.20;99.90
30648;DHT22;17683;53.360;9.736;2023-04-03T07:34:40;4.30;99.90
30648;DHT22;17683;53.360;9.736;2023-04-03T07:37:06;4.50;99.90
30648;DHT22;17683;53.360;9.736;2023-04-03T07:39:32;4.60;99.90
30648;DHT22;17683;53.360;9.736;2023-04-03T07:42:01;4.70;99.90
30648;DHT22;17683;53.360;9.736;2023-04-03T07:44:27;4.90;99.90
30648;DHT22;17683;53.360;9.736;2023-04-03T07:46:53;5.00;99.90
30648;DHT22;17683;53.360;9.736;2023-04-03T07:49:20;5.10;99.90
30648;DHT22;17683;53.360;9.736;2023-04-03T07:51:48;5.10;99.90
30648;DHT22;17683;53.360;9.736;2023-04-03T07:54:14;5.30;99.90
30648;DHT22;17683;53.360;9.736;2023-04-03T07:56:40;5.30;99.90
30648;DHT22;17683;53.360;9.736;2023-04-03T07:59:08;5.40;99.90
30648;DHT22;17683;53.360;9.736;2023-04-03T08:01:34;5.40;99.90
30648;DHT22;17683;53.360;9.736;2023-04-03T08:04:00;5.50;99.90
30648;DHT22;17683;53.360;9.736;2023-04-03T08:06:26;5.60;99.90
30648;DHT22;17683;53.360;9.736;2023-04-03T08:08:51;5.50;99.90
30648;DHT22;17683;53.360;9.736;2023-04-03T08:11:17;5.50;99.90
30648;DHT22;17683;53.360;9.736;2023-04-03T08:13:44;5.70;99.90
30648;DHT22;17683;53.360;9.736;2023-04-03T08:16:17;5.80;99.90
30648;DHT22;17683;53.360;9.736;2023-04-03T08:18:43;5.90;99.90
30648;DHT22;17683;53.360;9.736;2023-04-03T08:21:10;6.00;99.90
30648;DHT22;17683;53.360;9.736;2023-04-03T08:23:37;6.10;99.90
30648;DHT22;17683;53.360;9.736;2023-04-03T08:26:13;6.10;99.90
30648;DHT22;17683;53.360;9.736;2023-04-03T08:28:40;6.10;99.90
30648;DHT22;17683;53.360;9.736;2023-04-03T08:31:10;6.10;99.90
30648;DHT22;17683;53.360;9.736;2023-04-03T08:33:38;6.10;99.90
30648;DHT22;17683;53.360;9.736;2023-04-03T08:36:05;6.20;99.90
30648;DHT22;17683;53.360;9.736;2023-04-03T08:38:31;6.40;99.90
30648;DHT22;17683;53.360;9.736;2023-04-03T08:41:10;6.30;99.90
30648;DHT22;17683;53.360;9.736;2023-04-03T08:46:14;6.40;99.90
30648;DHT22;17683;53.360;9.736;2023-04-03T08:48:42;6.40;99.90
30648;DHT22;17683;53.360;9.736;2023-04-03T08:51:15;6.50;99.90
30648;DHT22;17683;53.360;9.736;2023-04-03T08:53:56;6.60;99.90
30648;DHT22;17683;53.360;9.736;2023-04-03T08:56:23;6.70;99.90
30648;DHT22;17683;53.360;9.736;2023-04-03T08:59:00;6.80;99.90
30648;DHT22;17683;53.360;9.736;2023-04-03T09:01:38;6.70;99.90
30648;DHT22;17683;53.360;9.736;2023-04-03T09:04:24;6.80;99.90
30648;DHT22;17683;53.360;9.736;2023-04-03T09:07:02;6.90;99.70
30648;DHT22;17683;53.360;9.736;2023-04-03T09:09:36;7.00;99.70
30648;DHT22;17683;53.360;9.736;2023-04-03T09:12:16;7.00;99.90
30648;DHT22;17683;53.360;9.736;2023-04-03T09:21:01;7.20;98.10
30648;DHT22;17683;53.360;9.736;2023-04-03T09:23:39;7.20;98.70
30648;DHT22;17683;53.360;9.736;2023-04-03T09:26:18;7.30;99.20
30648;DHT22;17683;53.360;9.736;2023-04-03T09:28:46;7.40;98.80
30648;DHT22;17683;53.360;9.736;2023-04-03T09:31:19;7.60;98.80
30648;DHT22;17683;53.360;9.736;2023-04-03T09:33:46;7.60;97.70
30648;DHT22;17683;53.360;9.736;2023-04-03T09:36:12;7.80;96.40
30648;DHT22;17683;53.360;9.736;2023-04-03T09:38:38;7.70;94.20
30648;DHT22;17683;53.360;9.736;2023-04-03T09:41:09;8.00;97.20
30648;DHT22;17683;53.360;9.736;2023-04-03T09:43:39;8.20;97.70
30648;DHT22;17683;53.360;9.736;2023-04-03T09:46:25;8.40;96.20
30648;DHT22;17683;53.360;9.736;2023-04-03T09:49:03;8.30;94.80
30648;DHT22;17683;53.360;9.736;2023-04-03T09:51:30;8.50;95.10
30648;DHT22;17683;53.360;9.736;2023-04-03T09:53:57;8.50;94.70
30648;DHT22;17683;53.360;9.736;2023-04-03T09:56:28;8.50;94.60
30648;DHT22;17683;53.360;9.736;2023-04-03T09:59:15;8.30;92.20
30648;DHT22;17683;53.360;9.736;2023-04-03T10:01:43;8.20;90.90
30648;DHT22;17683;53.360;9.736;2023-04-03T10:04:22;8.10;92.10
30648;DHT22;17683;53.360;9.736;2023-04-03T10:06:53;8.20;92.10
30648;DHT22;17683;53.360;9.736;2023-04-03T10:12:10;8.40;93.90
30648;DHT22;17683;53.360;9.736;2023-04-03T10:14:57;8.60;91.30
30648;DHT22;17683;53.360;9.736;2023-04-03T10:20:36;8.40;91.10
30648;DHT22;17683;53.360;9.736;2023-04-03T10:34:08;7.90;89.60
30648;DHT22;17683;53.360;9.736;2023-04-03T10:36:54;7.70;88.70
30648;DHT22;17683;53.360;9.736;2023-04-03T10:45:01;7.60;89.70
30648;DHT22;17683;53.360;9.736;2023-04-03T10:53:39;7.50;90.70
30648;DHT22;17683;53.360;9.736;2023-04-03T10:58:40;7.40;91.40
30648;DHT22;17683;53.360;9.736;2023-04-03T11:01:35;7.40;91.00
30648;DHT22;17683;53.360;9.736;2023-04-03T11:04:04;7.30;91.20
30648;DHT22;17683;53.360;9.736;2023-04-03T11:06:38;7.30;90.40
30648;DHT22;17683;53.360;9.736;2023-04-03T11:09:18;7.40;90.80
30648;DHT22;17683;53.360;9.736;2023-04-03T11:11:45;7.30;89.10
30648;DHT22;17683;53.360;9.736;2023-04-03T11:14:31;7.30;90.40
30648;DHT22;17683;53.360;9.736;2023-04-03T11:20:21;7.40;90.30
30648;DHT22;17683;53.360;9.736;2023-04-03T11:23:16;7.30;88.50
30648;DHT22;17683;53.360;9.736;2023-04-03T11:25:46;7.60;90.90
30648;DHT22;17683;53.360;9.736;2023-04-03T11:28:15;7.90;92.70
30648;DHT22;17683;53.360;9.736;2023-04-03T11:33:58;8.50;90.00
30648;DHT22;17683;53.360;9.736;2023-04-03T11:36:47;8.70;88.30
30648;DHT22;17683;53.360;9.736;2023-04-03T11:39:25;8.80;86.90
30648;DHT22;17683;53.360;9.736;2023-04-03T11:41:52;8.70;87.70
30648;DHT22;17683;53.360;9.736;2023-04-03T11:44:32;8.80;90.00
30648;DHT22;17683;53.360;9.736;2023-04-03T11:47:00;8.80;89.70
30648;DHT22;17683;53.360;9.736;2023-04-03T12:06:41;8.90;84.70
30648;DHT22;17683;53.360;9.736;2023-04-03T12:08:43;8.50;83.00
30648;DHT22;17683;53.360;9.736;2023-04-03T12:19:30;8.40;84.00
30648;DHT22;17683;53.360;9.736;2023-04-03T12:24:32;8.50;83.60
30648;DHT22;17683;53.360;9.736;2023-04-03T12:27:21;8.60;84.90
30648;DHT22;17683;53.360;9.736;2023-04-03T12:30:00;8.50;82.20
30648;DHT22;17683;53.360;9.736;2023-04-03T12:39:01;8.70;83.60
30648;DHT22;17683;53.360;9.736;2023-04-03T12:46:48;9.00;84.00
30648;DHT22;17683;53.360;9.736;2023-04-03T12:51:52;9.20;85.00
30648;DHT22;17683;53.360;9.736;2023-04-03T12:56:46;9.20;86.70
30648;DHT22;17683;53.360;9.736;2023-04-03T12:59:26;9.20;84.70
30648;DHT22;17683;53.360;9.736;2023-04-03T13:02:00;9.10;84.90
30648;DHT22;17683;53.360;9.736;2023-04-03T13:04:31;9.10;84.30
30648;DHT22;17683;53.360;9.736;2023-04-03T13:06:57;8.90;84.40
30648;DHT22;17683;53.360;9.736;2023-04-03T13:09:29;8.90;86.10
30648;DHT22;17683;53.360;9.736;2023-04-03T13:12:01;8.80;85.70
30648;DHT22;17683;53.360;9.736;2023-04-03T13:14:29;8.80;86.50
30648;DHT22;17683;53.360;9.736;2023-04-03T13:16:59;8.70;87.20
30648;DHT22;17683;53.360;9.736;2023-04-03T13:19:27;8.60;85.40
30648;DHT22;17683;53.360;9.736;2023-04-03T13:22:07;8.40;85.20
30648;DHT22;17683;53.360;9.736;2023-04-03T13:24:35;8.30;86.50
30648;DHT22;17683;53.360;9.736;2023-04-03T13:27:03;8.10;85.00
30648;DHT22;17683;53.360;9.736;2023-04-03T13:29:32;8.00;87.30
30648;DHT22;17683;53.360;9.736;2023-04-03T13:31:59;8.20;89.80
30648;DHT22;17683;53.360;9.736;2023-04-03T13:34:28;8.40;86.00
30648;DHT22;17683;53.360;9.736;2023-04-03T13:37:00;8.50;86.40
30648;DHT22;17683;53.360;9.736;2023-04-03T13:39:31;8.60;89.40
30648;DHT22;17683;53.360;9.736;2023-04-03T13:41:59;8.70;86.60
30648;DHT22;17683;53.360;9.736;2023-04-03T13:44:35;8.60;86.40
30648;DHT22;17683;53.360;9.736;2023-04-03T13:47:16;8.40;86.50
30648;DHT22;17683;53.360;9.736;2023-04-03T13:52:32;8.20;88.70
30648;DHT22;17683;53.360;9.736;2023-04-03T13:55:20;8.00;89.20
30648;DHT22;17683;53.360;9.736;2023-04-03T13:57:56;8.00;88.40
30648;DHT22;17683;53.360;9.736;2023-04-03T14:00:39;8.00;89.00
30648;DHT22;17683;53.360;9.736;2023-04-03T14:03:20;8.10;89.50
30648;DHT22;17683;53.360;9.736;2023-04-03T14:05:46;8.30;88.00
30648;DHT22;17683;53.360;9.736;2023-04-03T14:08:12;8.40;88.30
30648;DHT22;17683;53.360;9.736;2023-04-03T14:10:38;8.60;87.80
30648;DHT22;17683;53.360;9.736;2023-04-03T14:13:05;8.70;85.10
30648;DHT22;17683;53.360;9.736;2023-04-03T14:15:31;8.80;88.80
30648;DHT22;17683;53.360;9.736;2023-04-03T14:17:58;8.90;86.30
30648;DHT22;17683;53.360;9.736;2023-04-03T14:20:26;8.90;83.50
30648;DHT22;17683;53.360;9.736;2023-04-03T14:22:53;9.00;85.90
30648;DHT22;17683;53.360;9.736;2023-04-03T14:25:20;8.90;87.70
30648;DHT22;17683;53.360;9.736;2023-04-03T14:27:49;8.70;83.20
30648;DHT22;17683;53.360;9.736;2023-04-03T14:30:23;8.50;83.30
30648;DHT22;17683;53.360;9.736;2023-04-03T14:32:49;8.50;86.10
30648;DHT22;17683;53.360;9.736;2023-04-03T14:35:16;8.50;86.80
30648;DHT22;17683;53.360;9.736;2023-04-03T14:37:43;8.60;86.00
30648;DHT22;17683;53.360;9.736;2023-04-03T14:40:16;8.60;86.60
30648;DHT22;17683;53.360;9.736;2023-04-03T14:42:42;8.60;81.90
30648;DHT22;17683;53.360;9.736;2023-04-03T14:45:11;8.80;86.00
30648;DHT22;17683;53.360;9.736;2023-04-03T14:47:54;8.60;83.00
30648;DHT22;17683;53.360;9.736;2023-04-03T14:50:25;8.40;82.70
30648;DHT22;17683;53.360;9.736;2023-04-03T14:52:53;8.20;84.30
30648;DHT22;17683;53.360;9.736;2023-04-03T14:55:22;8.10;85.50
30648;DHT22;17683;53.360;9.736;2023-04-03T14:57:48;8.10;87.00
30648;DHT22;17683;53.360;9.736;2023-04-03T15:00:16;8.10;86.10
30648;DHT22;17683;53.360;9.736;2023-04-03T15:02:43;8.10;86.00
30648;DHT22;17683;53.360;9.736;2023-04-03T15:05:11;8.00;82.60
30648;DHT22;17683;53.360;9.736;2023-04-03T15:07:43;8.10;85.00
30648;DHT22;17683;53.360;9.736;2023-04-03T15:12:44;8.20;87.60
30648;DHT22;17683;53.360;9.736;2023-04-03T15:15:12;8.30;85.80
30648;DHT22;17683;53.360;9.736;2023-04-03T15:17:38;8.30;84.00
30648;DHT22;17683;53.360;9.736;2023-04-03T15:20:16;8.40;85.20
30648;DHT22;17683;53.360;9.736;2023-04-03T15:22:43;8.40;84.10
30648;DHT22;17683;53.360;9.736;2023-04-03T15:25:09;8.20;81.50
30648;DHT22;17683;53.360;9.736;2023-04-03T15:27:35;8.10;82.80
30648;DHT22;17683;53.360;9.736;2023-04-03T15:30:02;8.10;83.40
30648;DHT22;17683;53.360;9.736;2023-04-03T15:32:28;8.00;82.00
30648;DHT22;17683;53.360;9.736;2023-04-03T15:34:54;8.10;84.10
30648;DHT22;17683;53.360;9.736;2023-04-03T15:37:20;8.20;80.80
30648;DHT22;17683;53.360;9.736;2023-04-03T15:39:46;8.00;80.00
30648;DHT22;17683;53.360;9.736;2023-04-03T15:42:11;8.00;80.60
30648;DHT22;17683;53.360;9.736;2023-04-03T15:44:38;8.10;83.40
30648;DHT22;17683;53.360;9.736;2023-04-03T15:47:04;8.10;81.50
30648;DHT22;17683;53.360;9.736;2023-04-03T15:49:30;8.00;80.30
30648;DHT22;17683;53.360;9.736;2023-04-03T15:51:58;8.00;81.80
30648;DHT22;17683;53.360;9.736;2023-04-03T15:54:24;8.00;83.90
30648;DHT22;17683;53.360;9.736;2023-04-03T15:56:51;8.00;82.10
30648;DHT22;17683;53.360;9.736;2023-04-03T15:59:16;8.00;83.00
30648;DHT22;17683;53.360;9.736;2023-04-03T16:01:43;7.90;80.70
30648;DHT22;17683;53.360;9.736;2023-04-03T16:04:09;7.80;82.40
30648;DHT22;17683;53.360;9.736;2023-04-03T16:06:37;7.70;82.10
30648;DHT22;17683;53.360;9.736;2023-04-03T16:09:03;7.60;82.80
30648;DHT22;17683;53.360;9.736;2023-04-03T16:11:30;7.60;81.90
30648;DHT22;17683;53.360;9.736;2023-04-03T16:13:56;7.50;81.20
30648;DHT22;17683;53.360;9.736;2023-04-03T16:16:23;7.50;82.30
30648;DHT22;17683;53.360;9.736;2023-04-03T16:18:50;7.40;82.50
30648;DHT22;17683;53.360;9.736;2023-04-03T16:21:16;7.50;82.50
30648;DHT22;17683;53.360;9.736;2023-04-03T16:23:43;7.40;84.10
30648;DHT22;17683;53.360;9.736;2023-04-03T16:26:09;7.40;83.20
30648;DHT22;17683;53.360;9.736;2023-04-03T16:28:35;7.30;84.20
30648;DHT22;17683;53.360;9.736;2023-04-03T16:31:01;7.30;84.10
30648;DHT22;17683;53.360;9.736;2023-04-03T16:33:27;7.20;84.30
30648;DHT22;17683;53.360;9.736;2023-04-03T16:35:54;7.10;84.90
30648;DHT22;17683;53.360;9.736;2023-04-03T16:38:20;7.00;83.60
30648;DHT22;17683;53.360;9.736;2023-04-03T16:40:48;6.90;83.30
30648;DHT22;17683;53.360;9.736;2023-04-03T16:43:14;6.90;85.40
30648;DHT22;17683;53.360;9.736;2023-04-03T16:45:40;6.90;86.20
30648;DHT22;17683;53.360;9.736;2023-04-03T16:48:06;6.90;86.10
30648;DHT22;17683;53.360;9.736;2023-04-03T16:50:32;6.80;86.60
30648;DHT22;17683;53.360;9.736;2023-04-03T16:52:57;6.80;86.60
30648;DHT22;17683;53.360;9.736;2023-04-03T16:55:23;6.70;85.60
30648;DHT22;17683;53.360;9.736;2023-04-03T16:57:49;6.70;85.90
30648;DHT22;17683;53.360;9.736;2023-04-03T17:00:15;6.70;85.90
30648;DHT22;17683;53.360;9.736;2023-04-03T17:02:41;6.60;88.10
30648;DHT22;17683;53.360;9.736;2023-04-03T17:05:07;6.60;88.10
30648;DHT22;17683;53.360;9.736;2023-04-03T17:07:33;6.60;87.80
30648;DHT22;17683;53.360;9.736;2023-04-03T17:09:59;6.50;86.70
30648;DHT22;17683;53.360;9.736;2023-04-03T17:12:24;6.50;88.40
30648;DHT22;17683;53.360;9.736;2023-04-03T17:14:50;6.40;87.80
30648;DHT22;17683;53.360;9.736;2023-04-03T17:17:21;6.40;89.00
30648;DHT22;17683;53.360;9.736;2023-04-03T17:19:48;6.30;88.40
30648;DHT22;17683;53.360;9.736;2023-04-03T17:22:14;6.30;87.40
30648;DHT22;17683;53.360;9.736;2023-04-03T17:24:42;6.20;88.70
30648;DHT22;17683;53.360;9.736;2023-04-03T17:27:07;6.20;89.50
30648;DHT22;17683;53.360;9.736;2023-04-03T17:29:33;6.20;90.30
30648;DHT22;17683;53.360;9.736;2023-04-03T17:31:59;6.10;90.30
30648;DHT22;17683;53.360;9.736;2023-04-03T17:34:24;6.00;90.70